Asherville, Missouri
Current Conditions -  °F | °C
As of 5:53 PM on Sunday 21 Dec 2014 (Local Time) from KPOF Reporting Station
Overcast Overcast  
Wind Chill: 39°   Ceiling: 4100
Heat Index: 43°   Visibility: 10mi
Dew Point: 35°   Wind: 6mph
Humidity: 74%   Direction: 60°ENE
Pressure: 30.02"   Gusts: NA
Location:  36.9506°N, 90.1582°W
Report Text: KPOF 212353Z AUTO 06005KT 10SM OVC041 06/02 A3002 RMK AO2 SLP169 T00610017 10067 20050 56014
Loading
Personal Weather Stations






























Interactive Weather Map New forecast layout! Learn more

10-Day Weather Forecast

Advertisements
Track Severe Weather on mobile